sensor_id;sensor_type;location;lat;lon;timestamp;P1;durP1;ratioP1;P2;durP2;ratioP2
81714;SDS011;71125;44.066;2.982;2023-09-12T00:00:11;10.48;;;4.97;;
81714;SDS011;71125;44.066;2.982;2023-09-12T00:02:40;10.20;;;5.50;;
81714;SDS011;71125;44.066;2.982;2023-09-12T00:05:06;6.95;;;4.85;;
81714;SDS011;71125;44.066;2.982;2023-09-12T00:07:32;8.73;;;5.28;;
81714;SDS011;71125;44.066;2.982;2023-09-12T00:09:58;10.30;;;5.15;;
81714;SDS011;71125;44.066;2.982;2023-09-12T00:12:24;8.57;;;5.18;;
81714;SDS011;71125;44.066;2.982;2023-09-12T00:14:50;9.52;;;4.85;;
81714;SDS011;71125;44.066;2.982;2023-09-12T00:17:16;8.95;;;5.18;;
81714;SDS011;71125;44.066;2.982;2023-09-12T00:19:43;9.77;;;5.30;;
81714;SDS011;71125;44.066;2.982;2023-09-12T00:22:09;9.50;;;5.15;;
81714;SDS011;71125;44.066;2.982;2023-09-12T00:24:44;9.30;;;5.00;;
81714;SDS011;71125;44.066;2.982;2023-09-12T00:27:10;9.38;;;5.38;;
81714;SDS011;71125;44.066;2.982;2023-09-12T00:29:36;8.57;;;5.18;;
81714;SDS011;71125;44.066;2.982;2023-09-12T00:32:05;9.27;;;5.28;;
81714;SDS011;71125;44.066;2.982;2023-09-12T00:34:34;8.73;;;5.30;;
81714;SDS011;71125;44.066;2.982;2023-09-12T00:37:03;12.85;;;5.15;;
81714;SDS011;71125;44.066;2.982;2023-09-12T00:39:36;8.70;;;5.35;;
81714;SDS011;71125;44.066;2.982;2023-09-12T00:42:10;8.88;;;5.10;;
81714;SDS011;71125;44.066;2.982;2023-09-12T00:44:36;8.68;;;5.40;;
81714;SDS011;71125;44.066;2.982;2023-09-12T00:47:03;7.90;;;5.13;;
81714;SDS011;71125;44.066;2.982;2023-09-12T00:49:29;7.90;;;5.13;;
81714;SDS011;71125;44.066;2.982;2023-09-12T00:51:55;10.60;;;5.15;;
81714;SDS011;71125;44.066;2.982;2023-09-12T00:54:25;7.53;;;4.88;;
81714;SDS011;71125;44.066;2.982;2023-09-12T00:56:51;8.95;;;4.80;;
81714;SDS011;71125;44.066;2.982;2023-09-12T00:59:23;10.05;;;5.22;;
81714;SDS011;71125;44.066;2.982;2023-09-12T01:01:49;7.10;;;4.85;;
81714;SDS011;71125;44.066;2.982;2023-09-12T01:04:19;11.52;;;4.90;;
81714;SDS011;71125;44.066;2.982;2023-09-12T01:06:45;10.13;;;5.05;;
81714;SDS011;71125;44.066;2.982;2023-09-12T01:09:18;9.45;;;4.93;;
81714;SDS011;71125;44.066;2.982;2023-09-12T01:11:47;8.18;;;5.13;;
81714;SDS011;71125;44.066;2.982;2023-09-12T01:14:13;7.90;;;4.93;;
81714;SDS011;71125;44.066;2.982;2023-09-12T01:16:39;8.93;;;4.90;;
81714;SDS011;71125;44.066;2.982;2023-09-12T01:19:06;10.00;;;4.93;;
81714;SDS011;71125;44.066;2.982;2023-09-12T01:27:21;7.93;;;4.72;;
81714;SDS011;71125;44.066;2.982;2023-09-12T01:29:49;7.95;;;5.25;;
81714;SDS011;71125;44.066;2.982;2023-09-12T01:32:16;10.30;;;4.57;;
81714;SDS011;71125;44.066;2.982;2023-09-12T01:34:43;10.98;;;5.10;;
81714;SDS011;71125;44.066;2.982;2023-09-12T01:37:09;7.57;;;4.35;;
81714;SDS011;71125;44.066;2.982;2023-09-12T01:39:36;8.80;;;4.70;;
81714;SDS011;71125;44.066;2.982;2023-09-12T01:42:02;7.22;;;4.65;;
81714;SDS011;71125;44.066;2.982;2023-09-12T01:44:28;10.60;;;5.93;;
81714;SDS011;71125;44.066;2.982;2023-09-12T01:46:55;8.18;;;5.05;;
81714;SDS011;71125;44.066;2.982;2023-09-12T01:49:23;12.20;;;5.18;;
81714;SDS011;71125;44.066;2.982;2023-09-12T01:51:50;7.68;;;5.10;;
81714;SDS011;71125;44.066;2.982;2023-09-12T01:54:17;8.35;;;4.25;;
81714;SDS011;71125;44.066;2.982;2023-09-12T01:56:44;7.72;;;4.80;;
81714;SDS011;71125;44.066;2.982;2023-09-12T01:59:11;9.60;;;4.63;;
81714;SDS011;71125;44.066;2.982;2023-09-12T02:01:37;7.55;;;4.32;;
81714;SDS011;71125;44.066;2.982;2023-09-12T02:04:03;7.55;;;4.65;;
81714;SDS011;71125;44.066;2.982;2023-09-12T02:06:34;8.27;;;5.25;;
81714;SDS011;71125;44.066;2.982;2023-09-12T02:09:00;10.38;;;4.47;;
81714;SDS011;71125;44.066;2.982;2023-09-12T02:11:27;8.88;;;4.90;;
81714;SDS011;71125;44.066;2.982;2023-09-12T02:13:53;8.82;;;4.93;;
81714;SDS011;71125;44.066;2.982;2023-09-12T02:16:19;11.57;;;5.10;;
81714;SDS011;71125;44.066;2.982;2023-09-12T02:18:45;6.32;;;4.50;;
81714;SDS011;71125;44.066;2.982;2023-09-12T02:21:11;7.97;;;4.60;;
81714;SDS011;71125;44.066;2.982;2023-09-12T02:23:37;9.50;;;5.00;;
81714;SDS011;71125;44.066;2.982;2023-09-12T02:26:03;7.70;;;4.63;;
81714;SDS011;71125;44.066;2.982;2023-09-12T02:28:29;9.25;;;4.22;;
81714;SDS011;71125;44.066;2.982;2023-09-12T02:30:55;8.38;;;4.70;;
81714;SDS011;71125;44.066;2.982;2023-09-12T02:33:21;7.13;;;4.15;;
81714;SDS011;71125;44.066;2.982;2023-09-12T02:35:47;8.18;;;4.40;;
81714;SDS011;71125;44.066;2.982;2023-09-12T02:38:13;7.97;;;4.47;;
81714;SDS011;71125;44.066;2.982;2023-09-12T02:40:39;6.22;;;4.30;;
81714;SDS011;71125;44.066;2.982;2023-09-12T02:43:05;9.93;;;4.78;;
81714;SDS011;71125;44.066;2.982;2023-09-12T02:45:31;6.50;;;4.90;;
81714;SDS011;71125;44.066;2.982;2023-09-12T02:50:29;7.45;;;3.95;;
81714;SDS011;71125;44.066;2.982;2023-09-12T02:52:58;8.40;;;4.78;;
81714;SDS011;71125;44.066;2.982;2023-09-12T02:55:24;7.80;;;4.18;;
81714;SDS011;71125;44.066;2.982;2023-09-12T02:57:50;9.52;;;4.72;;
81714;SDS011;71125;44.066;2.982;2023-09-12T03:00:16;6.70;;;4.20;;
81714;SDS011;71125;44.066;2.982;2023-09-12T03:02:43;6.45;;;3.83;;
81714;SDS011;71125;44.066;2.982;2023-09-12T03:05:09;5.57;;;4.30;;
81714;SDS011;71125;44.066;2.982;2023-09-12T03:07:35;7.05;;;4.25;;
81714;SDS011;71125;44.066;2.982;2023-09-12T03:10:01;9.43;;;4.40;;
81714;SDS011;71125;44.066;2.982;2023-09-12T03:12:27;6.88;;;4.20;;
81714;SDS011;71125;44.066;2.982;2023-09-12T03:14:53;10.27;;;4.75;;
81714;SDS011;71125;44.066;2.982;2023-09-12T03:17:19;9.25;;;4.85;;
81714;SDS011;71125;44.066;2.982;2023-09-12T03:19:46;8.00;;;5.10;;
81714;SDS011;71125;44.066;2.982;2023-09-12T03:22:12;9.15;;;4.80;;
81714;SDS011;71125;44.066;2.982;2023-09-12T03:24:38;6.43;;;4.30;;
81714;SDS011;71125;44.066;2.982;2023-09-12T03:27:04;8.48;;;4.88;;
81714;SDS011;71125;44.066;2.982;2023-09-12T03:29:30;7.53;;;4.68;;
81714;SDS011;71125;44.066;2.982;2023-09-12T03:31:56;6.47;;;4.10;;
81714;SDS011;71125;44.066;2.982;2023-09-12T03:34:22;8.02;;;4.55;;
81714;SDS011;71125;44.066;2.982;2023-09-12T03:36:48;6.95;;;4.32;;
81714;SDS011;71125;44.066;2.982;2023-09-12T03:39:14;8.52;;;4.63;;
81714;SDS011;71125;44.066;2.982;2023-09-12T03:41:40;8.77;;;4.30;;
81714;SDS011;71125;44.066;2.982;2023-09-12T03:44:06;6.72;;;4.25;;
81714;SDS011;71125;44.066;2.982;2023-09-12T03:46:33;6.78;;;4.63;;
81714;SDS011;71125;44.066;2.982;2023-09-12T03:48:59;6.35;;;4.28;;
81714;SDS011;71125;44.066;2.982;2023-09-12T03:51:25;6.10;;;4.50;;
81714;SDS011;71125;44.066;2.982;2023-09-12T03:53:51;6.35;;;3.88;;
81714;SDS011;71125;44.066;2.982;2023-09-12T03:56:17;5.88;;;3.78;;
81714;SDS011;71125;44.066;2.982;2023-09-12T03:58:46;7.25;;;4.15;;
81714;SDS011;71125;44.066;2.982;2023-09-12T04:01:12;7.93;;;4.10;;
81714;SDS011;71125;44.066;2.982;2023-09-12T04:03:38;7.85;;;4.22;;
81714;SDS011;71125;44.066;2.982;2023-09-12T04:06:04;7.72;;;4.53;;
81714;SDS011;71125;44.066;2.982;2023-09-12T04:08:30;7.75;;;4.40;;
81714;SDS011;71125;44.066;2.982;2023-09-12T04:10:57;6.82;;;4.25;;
81714;SDS011;71125;44.066;2.982;2023-09-12T04:13:23;8.10;;;4.68;;
81714;SDS011;71125;44.066;2.982;2023-09-12T04:15:49;8.00;;;3.92;;
81714;SDS011;71125;44.066;2.982;2023-09-12T04:18:15;11.27;;;4.78;;
81714;SDS011;71125;44.066;2.982;2023-09-12T04:20:41;10.82;;;4.78;;
81714;SDS011;71125;44.066;2.982;2023-09-12T04:23:10;7.95;;;4.50;;
81714;SDS011;71125;44.066;2.982;2023-09-12T04:25:36;7.55;;;4.55;;
81714;SDS011;71125;44.066;2.982;2023-09-12T04:28:02;6.35;;;4.15;;
81714;SDS011;71125;44.066;2.982;2023-09-12T04:30:28;9.50;;;4.63;;
81714;SDS011;71125;44.066;2.982;2023-09-12T04:32:55;7.22;;;4.95;;
81714;SDS011;71125;44.066;2.982;2023-09-12T04:35:21;9.23;;;5.07;;
81714;SDS011;71125;44.066;2.982;2023-09-12T04:37:50;7.72;;;4.72;;
81714;SDS011;71125;44.066;2.982;2023-09-12T04:40:19;7.63;;;5.10;;
81714;SDS011;71125;44.066;2.982;2023-09-12T04:42:45;8.25;;;5.57;;
81714;SDS011;71125;44.066;2.982;2023-09-12T04:45:11;11.00;;;6.57;;
81714;SDS011;71125;44.066;2.982;2023-09-12T04:47:37;10.68;;;6.68;;
81714;SDS011;71125;44.066;2.982;2023-09-12T04:50:03;9.93;;;6.00;;
81714;SDS011;71125;44.066;2.982;2023-09-12T04:52:29;7.93;;;5.25;;
81714;SDS011;71125;44.066;2.982;2023-09-12T04:54:55;8.68;;;5.35;;
81714;SDS011;71125;44.066;2.982;2023-09-12T04:57:21;7.45;;;5.00;;
81714;SDS011;71125;44.066;2.982;2023-09-12T04:59:47;8.27;;;4.95;;
81714;SDS011;71125;44.066;2.982;2023-09-12T05:02:13;8.25;;;5.38;;
81714;SDS011;71125;44.066;2.982;2023-09-12T05:04:40;9.68;;;5.95;;
81714;SDS011;71125;44.066;2.982;2023-09-12T05:07:06;9.30;;;5.60;;
81714;SDS011;71125;44.066;2.982;2023-09-12T05:09:32;10.60;;;5.72;;
81714;SDS011;71125;44.066;2.982;2023-09-12T05:11:58;8.50;;;4.90;;
81714;SDS011;71125;44.066;2.982;2023-09-12T05:14:24;7.47;;;5.15;;
81714;SDS011;71125;44.066;2.982;2023-09-12T05:16:50;8.48;;;4.85;;
81714;SDS011;71125;44.066;2.982;2023-09-12T05:19:16;7.03;;;4.57;;
81714;SDS011;71125;44.066;2.982;2023-09-12T05:21:42;7.75;;;5.32;;
81714;SDS011;71125;44.066;2.982;2023-09-12T05:24:08;7.75;;;5.05;;
81714;SDS011;71125;44.066;2.982;2023-09-12T05:26:34;10.07;;;5.68;;
81714;SDS011;71125;44.066;2.982;2023-09-12T05:29:00;11.85;;;5.85;;
81714;SDS011;71125;44.066;2.982;2023-09-12T05:31:27;9.88;;;5.45;;
81714;SDS011;71125;44.066;2.982;2023-09-12T05:33:53;11.00;;;5.88;;
81714;SDS011;71125;44.066;2.982;2023-09-12T05:36:19;9.10;;;5.53;;
81714;SDS011;71125;44.066;2.982;2023-09-12T05:38:45;9.27;;;5.30;;
81714;SDS011;71125;44.066;2.982;2023-09-12T05:41:11;10.88;;;5.28;;
81714;SDS011;71125;44.066;2.982;2023-09-12T05:43:37;8.15;;;5.53;;
81714;SDS011;71125;44.066;2.982;2023-09-12T05:46:04;9.40;;;5.63;;
81714;SDS011;71125;44.066;2.982;2023-09-12T05:48:30;9.38;;;5.40;;
81714;SDS011;71125;44.066;2.982;2023-09-12T05:50:56;15.88;;;5.65;;
81714;SDS011;71125;44.066;2.982;2023-09-12T05:53:22;11.23;;;5.45;;
81714;SDS011;71125;44.066;2.982;2023-09-12T05:55:48;11.73;;;6.57;;
81714;SDS011;71125;44.066;2.982;2023-09-12T05:58:14;9.57;;;5.93;;
81714;SDS011;71125;44.066;2.982;2023-09-12T06:00:40;9.32;;;5.50;;
81714;SDS011;71125;44.066;2.982;2023-09-12T06:03:06;10.15;;;5.35;;
81714;SDS011;71125;44.066;2.982;2023-09-12T06:05:32;8.45;;;5.57;;
81714;SDS011;71125;44.066;2.982;2023-09-12T06:07:58;8.25;;;5.05;;
81714;SDS011;71125;44.066;2.982;2023-09-12T06:10:24;9.23;;;5.10;;
81714;SDS011;71125;44.066;2.982;2023-09-12T06:12:50;7.68;;;5.00;;
81714;SDS011;71125;44.066;2.982;2023-09-12T06:15:16;11.55;;;5.40;;
81714;SDS011;71125;44.066;2.982;2023-09-12T06:17:42;8.57;;;4.97;;
81714;SDS011;71125;44.066;2.982;2023-09-12T06:20:09;9.68;;;4.65;;
81714;SDS011;71125;44.066;2.982;2023-09-12T06:22:35;13.50;;;5.13;;
81714;SDS011;71125;44.066;2.982;2023-09-12T06:25:01;10.38;;;4.50;;
81714;SDS011;71125;44.066;2.982;2023-09-12T06:27:28;9.85;;;4.20;;
81714;SDS011;71125;44.066;2.982;2023-09-12T06:29:55;8.98;;;4.75;;
81714;SDS011;71125;44.066;2.982;2023-09-12T06:32:21;6.53;;;4.18;;
81714;SDS011;71125;44.066;2.982;2023-09-12T06:34:47;7.68;;;4.53;;
81714;SDS011;71125;44.066;2.982;2023-09-12T06:37:14;5.20;;;4.05;;
81714;SDS011;71125;44.066;2.982;2023-09-12T06:39:40;10.32;;;4.13;;
81714;SDS011;71125;44.066;2.982;2023-09-12T06:42:06;7.30;;;3.83;;
81714;SDS011;71125;44.066;2.982;2023-09-12T06:44:32;6.43;;;4.03;;
81714;SDS011;71125;44.066;2.982;2023-09-12T06:46:58;6.43;;;3.70;;
81714;SDS011;71125;44.066;2.982;2023-09-12T06:49:24;5.90;;;3.65;;
81714;SDS011;71125;44.066;2.982;2023-09-12T06:51:50;4.93;;;3.20;;
81714;SDS011;71125;44.066;2.982;2023-09-12T06:54:16;8.52;;;3.70;;
81714;SDS011;71125;44.066;2.982;2023-09-12T06:56:42;4.70;;;3.08;;
81714;SDS011;71125;44.066;2.982;2023-09-12T06:59:08;5.82;;;3.08;;
81714;SDS011;71125;44.066;2.982;2023-09-12T07:01:35;9.02;;;3.72;;
81714;SDS011;71125;44.066;2.982;2023-09-12T07:04:02;5.18;;;3.13;;
81714;SDS011;71125;44.066;2.982;2023-09-12T07:06:28;8.80;;;3.50;;
81714;SDS011;71125;44.066;2.982;2023-09-12T07:08:54;10.93;;;3.28;;
81714;SDS011;71125;44.066;2.982;2023-09-12T07:11:20;7.32;;;3.53;;
81714;SDS011;71125;44.066;2.982;2023-09-12T07:13:46;6.80;;;3.03;;
81714;SDS011;71125;44.066;2.982;2023-09-12T07:16:12;6.55;;;3.63;;
81714;SDS011;71125;44.066;2.982;2023-09-12T07:18:38;5.10;;;2.92;;
81714;SDS011;71125;44.066;2.982;2023-09-12T07:21:04;4.40;;;3.15;;
81714;SDS011;71125;44.066;2.982;2023-09-12T07:23:31;6.40;;;3.20;;
81714;SDS011;71125;44.066;2.982;2023-09-12T07:25:58;4.43;;;2.45;;
81714;SDS011;71125;44.066;2.982;2023-09-12T07:28:24;4.53;;;3.10;;
81714;SDS011;71125;44.066;2.982;2023-09-12T07:30:50;4.10;;;2.92;;
81714;SDS011;71125;44.066;2.982;2023-09-12T07:33:16;4.65;;;2.50;;
81714;SDS011;71125;44.066;2.982;2023-09-12T07:35:42;5.72;;;3.20;;
81714;SDS011;71125;44.066;2.982;2023-09-12T07:38:09;4.82;;;2.95;;
81714;SDS011;71125;44.066;2.982;2023-09-12T07:40:35;5.68;;;2.90;;
81714;SDS011;71125;44.066;2.982;2023-09-12T07:43:01;5.40;;;2.65;;
81714;SDS011;71125;44.066;2.982;2023-09-12T07:45:27;4.22;;;2.80;;
81714;SDS011;71125;44.066;2.982;2023-09-12T07:47:54;5.18;;;2.83;;
81714;SDS011;71125;44.066;2.982;2023-09-12T07:50:21;6.13;;;2.70;;
81714;SDS011;71125;44.066;2.982;2023-09-12T07:52:47;12.05;;;2.55;;
81714;SDS011;71125;44.066;2.982;2023-09-12T07:55:13;6.93;;;2.65;;
81714;SDS011;71125;44.066;2.982;2023-09-12T07:57:39;4.70;;;2.35;;
81714;SDS011;71125;44.066;2.982;2023-09-12T08:00:05;6.38;;;2.35;;
81714;SDS011;71125;44.066;2.982;2023-09-12T08:02:34;7.10;;;2.50;;
81714;SDS011;71125;44.066;2.982;2023-09-12T08:05:00;2.88;;;2.10;;
81714;SDS011;71125;44.066;2.982;2023-09-12T08:07:26;4.15;;;2.25;;
81714;SDS011;71125;44.066;2.982;2023-09-12T08:09:57;4.03;;;2.47;;
81714;SDS011;71125;44.066;2.982;2023-09-12T08:12:24;3.88;;;2.10;;
81714;SDS011;71125;44.066;2.982;2023-09-12T08:14:50;2.95;;;2.00;;
81714;SDS011;71125;44.066;2.982;2023-09-12T08:17:17;4.15;;;2.10;;
81714;SDS011;71125;44.066;2.982;2023-09-12T08:19:43;4.00;;;2.13;;
81714;SDS011;71125;44.066;2.982;2023-09-12T08:22:09;5.93;;;2.33;;
81714;SDS011;71125;44.066;2.982;2023-09-12T08:24:36;5.47;;;2.15;;
81714;SDS011;71125;44.066;2.982;2023-09-12T08:27:03;4.18;;;2.08;;
81714;SDS011;71125;44.066;2.982;2023-09-12T08:29:29;9.20;;;2.10;;
81714;SDS011;71125;44.066;2.982;2023-09-12T08:31:57;4.82;;;2.25;;
81714;SDS011;71125;44.066;2.982;2023-09-12T08:34:24;3.63;;;2.22;;
81714;SDS011;71125;44.066;2.982;2023-09-12T08:36:50;10.27;;;2.10;;
81714;SDS011;71125;44.066;2.982;2023-09-12T08:39:18;5.88;;;2.13;;
81714;SDS011;71125;44.066;2.982;2023-09-12T08:41:44;8.88;;;2.20;;
81714;SDS011;71125;44.066;2.982;2023-09-12T08:44:11;14.25;;;3.03;;
81714;SDS011;71125;44.066;2.982;2023-09-12T08:46:38;5.30;;;1.92;;
81714;SDS011;71125;44.066;2.982;2023-09-12T08:49:04;6.93;;;2.10;;
81714;SDS011;71125;44.066;2.982;2023-09-12T08:51:31;5.70;;;2.10;;
81714;SDS011;71125;44.066;2.982;2023-09-12T08:53:58;5.53;;;1.90;;
81714;SDS011;71125;44.066;2.982;2023-09-12T08:56:25;7.75;;;2.00;;
81714;SDS011;71125;44.066;2.982;2023-09-12T08:58:51;2.67;;;1.60;;
81714;SDS011;71125;44.066;2.982;2023-09-12T09:01:18;3.78;;;1.90;;
81714;SDS011;71125;44.066;2.982;2023-09-12T09:03:44;7.05;;;2.08;;
81714;SDS011;71125;44.066;2.982;2023-09-12T09:06:10;4.95;;;1.83;;
81714;SDS011;71125;44.066;2.982;2023-09-12T09:08:37;5.72;;;1.90;;
81714;SDS011;71125;44.066;2.982;2023-09-12T09:11:03;6.10;;;1.88;;
81714;SDS011;71125;44.066;2.982;2023-09-12T09:13:34;5.10;;;2.30;;
81714;SDS011;71125;44.066;2.982;2023-09-12T09:18:58;4.00;;;1.63;;
81714;SDS011;71125;44.066;2.982;2023-09-12T09:21:26;3.63;;;2.13;;
81714;SDS011;71125;44.066;2.982;2023-09-12T09:23:52;4.15;;;1.92;;
81714;SDS011;71125;44.066;2.982;2023-09-12T09:26:19;4.32;;;1.70;;
81714;SDS011;71125;44.066;2.982;2023-09-12T09:28:45;4.70;;;2.10;;
81714;SDS011;71125;44.066;2.982;2023-09-12T09:31:12;3.10;;;1.90;;
81714;SDS011;71125;44.066;2.982;2023-09-12T09:33:41;5.70;;;1.85;;
81714;SDS011;71125;44.066;2.982;2023-09-12T09:36:13;4.72;;;2.00;;
81714;SDS011;71125;44.066;2.982;2023-09-12T09:38:40;2.97;;;2.03;;
81714;SDS011;71125;44.066;2.982;2023-09-12T09:41:06;3.85;;;2.10;;
81714;SDS011;71125;44.066;2.982;2023-09-12T09:43:32;3.08;;;2.10;;
81714;SDS011;71125;44.066;2.982;2023-09-12T09:45:58;4.32;;;1.85;;
81714;SDS011;71125;44.066;2.982;2023-09-12T09:48:25;4.32;;;1.67;;
81714;SDS011;71125;44.066;2.982;2023-09-12T09:51:01;7.70;;;2.00;;
81714;SDS011;71125;44.066;2.982;2023-09-12T09:53:28;4.20;;;1.90;;
81714;SDS011;71125;44.066;2.982;2023-09-12T09:56:13;8.32;;;2.05;;
81714;SDS011;71125;44.066;2.982;2023-09-12T09:58:52;5.53;;;1.83;;
81714;SDS011;71125;44.066;2.982;2023-09-12T10:01:19;3.80;;;1.75;;
81714;SDS011;71125;44.066;2.982;2023-09-12T10:03:46;7.95;;;1.98;;
81714;SDS011;71125;44.066;2.982;2023-09-12T10:06:13;3.75;;;2.08;;
81714;SDS011;71125;44.066;2.982;2023-09-12T10:08:40;5.38;;;2.10;;
81714;SDS011;71125;44.066;2.982;2023-09-12T10:11:08;7.00;;;1.98;;
81714;SDS011;71125;44.066;2.982;2023-09-12T10:13:34;3.45;;;1.60;;
81714;SDS011;71125;44.066;2.982;2023-09-12T10:16:01;6.57;;;2.05;;
81714;SDS011;71125;44.066;2.982;2023-09-12T10:18:29;7.13;;;2.10;;
81714;SDS011;71125;44.066;2.982;2023-09-12T10:21:03;5.65;;;1.88;;
81714;SDS011;71125;44.066;2.982;2023-09-12T10:23:32;8.07;;;2.15;;
81714;SDS011;71125;44.066;2.982;2023-09-12T10:26:02;3.53;;;1.70;;
81714;SDS011;71125;44.066;2.982;2023-09-12T10:28:28;4.07;;;2.10;;
81714;SDS011;71125;44.066;2.982;2023-09-12T10:30:57;6.03;;;2.03;;
81714;SDS011;71125;44.066;2.982;2023-09-12T10:33:23;5.10;;;2.00;;
81714;SDS011;71125;44.066;2.982;2023-09-12T10:35:50;6.03;;;2.10;;
81714;SDS011;71125;44.066;2.982;2023-09-12T10:38:17;2.72;;;2.00;;
81714;SDS011;71125;44.066;2.982;2023-09-12T10:40:44;5.75;;;2.17;;
81714;SDS011;71125;44.066;2.982;2023-09-12T10:43:12;3.97;;;1.70;;
81714;SDS011;71125;44.066;2.982;2023-09-12T10:45:39;4.07;;;1.90;;
81714;SDS011;71125;44.066;2.982;2023-09-12T10:48:06;3.72;;;1.80;;
81714;SDS011;71125;44.066;2.982;2023-09-12T10:50:35;6.07;;;1.95;;
81714;SDS011;71125;44.066;2.982;2023-09-12T10:53:14;4.07;;;1.80;;
81714;SDS011;71125;44.066;2.982;2023-09-12T10:55:41;3.10;;;1.80;;
81714;SDS011;71125;44.066;2.982;2023-09-12T10:58:08;4.47;;;2.00;;
81714;SDS011;71125;44.066;2.982;2023-09-12T11:00:35;5.75;;;2.33;;
81714;SDS011;71125;44.066;2.982;2023-09-12T11:05:51;5.75;;;2.00;;
81714;SDS011;71125;44.066;2.982;2023-09-12T11:08:18;6.78;;;2.35;;
81714;SDS011;71125;44.066;2.982;2023-09-12T11:10:44;7.50;;;2.08;;
81714;SDS011;71125;44.066;2.982;2023-09-12T11:13:17;3.25;;;1.92;;
81714;SDS011;71125;44.066;2.982;2023-09-12T11:16:26;3.13;;;1.90;;
81714;SDS011;71125;44.066;2.982;2023-09-12T11:18:33;5.70;;;2.15;;
81714;SDS011;71125;44.066;2.982;2023-09-12T11:20:59;8.15;;;2.20;;
81714;SDS011;71125;44.066;2.982;2023-09-12T11:23:29;4.53;;;2.10;;
81714;SDS011;71125;44.066;2.982;2023-09-12T11:26:03;4.10;;;2.10;;
81714;SDS011;71125;44.066;2.982;2023-09-12T11:28:30;6.25;;;2.10;;
81714;SDS011;71125;44.066;2.982;2023-09-12T11:30:57;13.27;;;2.92;;
81714;SDS011;71125;44.066;2.982;2023-09-12T11:33:26;4.03;;;2.10;;
81714;SDS011;71125;44.066;2.982;2023-09-12T11:35:53;2.97;;;1.95;;
81714;SDS011;71125;44.066;2.982;2023-09-12T11:38:28;3.63;;;2.00;;
81714;SDS011;71125;44.066;2.982;2023-09-12T11:40:55;5.13;;;2.00;;
81714;SDS011;71125;44.066;2.982;2023-09-12T11:43:25;5.72;;;1.98;;
81714;SDS011;71125;44.066;2.982;2023-09-12T11:45:52;4.75;;;2.00;;
81714;SDS011;71125;44.066;2.982;2023-09-12T11:48:18;4.55;;;2.08;;
81714;SDS011;71125;44.066;2.982;2023-09-12T11:50:55;8.50;;;2.53;;
81714;SDS011;71125;44.066;2.982;2023-09-12T11:53:22;4.05;;;2.30;;
81714;SDS011;71125;44.066;2.982;2023-09-12T11:55:51;2.97;;;1.85;;
81714;SDS011;71125;44.066;2.982;2023-09-12T11:58:18;4.22;;;2.30;;
81714;SDS011;71125;44.066;2.982;2023-09-12T12:00:45;4.60;;;2.05;;
81714;SDS011;71125;44.066;2.982;2023-09-12T12:03:11;6.13;;;2.30;;
81714;SDS011;71125;44.066;2.982;2023-09-12T12:05:37;3.88;;;2.35;;
81714;SDS011;71125;44.066;2.982;2023-09-12T12:08:06;4.07;;;2.42;;
81714;SDS011;71125;44.066;2.982;2023-09-12T12:10:33;7.47;;;2.30;;
81714;SDS011;71125;44.066;2.982;2023-09-12T12:13:01;3.80;;;2.10;;
81714;SDS011;71125;44.066;2.982;2023-09-12T12:15:28;3.92;;;2.40;;
81714;SDS011;71125;44.066;2.982;2023-09-12T12:17:54;5.75;;;2.70;;
81714;SDS011;71125;44.066;2.982;2023-09-12T12:20:21;5.55;;;3.00;;
81714;SDS011;71125;44.066;2.982;2023-09-12T12:22:47;9.27;;;3.17;;
81714;SDS011;71125;44.066;2.982;2023-09-12T12:25:14;4.35;;;2.65;;
81714;SDS011;71125;44.066;2.982;2023-09-12T12:27:41;6.32;;;2.30;;
81714;SDS011;71125;44.066;2.982;2023-09-12T12:30:08;5.18;;;2.53;;
81714;SDS011;71125;44.066;2.982;2023-09-12T12:32:44;6.55;;;2.00;;
81714;SDS011;71125;44.066;2.982;2023-09-12T12:35:19;4.97;;;2.00;;
81714;SDS011;71125;44.066;2.982;2023-09-12T12:37:45;5.07;;;2.40;;
81714;SDS011;71125;44.066;2.982;2023-09-12T12:40:11;5.20;;;2.10;;
81714;SDS011;71125;44.066;2.982;2023-09-12T12:42:38;5.78;;;1.80;;
81714;SDS011;71125;44.066;2.982;2023-09-12T12:47:43;4.32;;;2.53;;
81714;SDS011;71125;44.066;2.982;2023-09-12T12:50:10;6.32;;;2.05;;
81714;SDS011;71125;44.066;2.982;2023-09-12T12:52:36;3.33;;;2.10;;
81714;SDS011;71125;44.066;2.982;2023-09-12T12:55:03;4.13;;;2.03;;
81714;SDS011;71125;44.066;2.982;2023-09-12T12:57:29;3.25;;;1.92;;
81714;SDS011;71125;44.066;2.982;2023-09-12T12:59:56;4.10;;;1.75;;
81714;SDS011;71125;44.066;2.982;2023-09-12T13:02:23;4.63;;;2.15;;
81714;SDS011;71125;44.066;2.982;2023-09-12T13:04:49;6.32;;;1.92;;
81714;SDS011;71125;44.066;2.982;2023-09-12T13:07:15;3.20;;;2.05;;
81714;SDS011;71125;44.066;2.982;2023-09-12T13:09:41;3.28;;;1.80;;
81714;SDS011;71125;44.066;2.982;2023-09-12T13:12:07;4.18;;;2.20;;
81714;SDS011;71125;44.066;2.982;2023-09-12T13:14:33;4.65;;;2.10;;
81714;SDS011;71125;44.066;2.982;2023-09-12T13:16:59;4.35;;;2.78;;
81714;SDS011;71125;44.066;2.982;2023-09-12T13:19:26;4.50;;;2.30;;
81714;SDS011;71125;44.066;2.982;2023-09-12T13:21:52;3.42;;;2.20;;
81714;SDS011;71125;44.066;2.982;2023-09-12T13:24:18;5.28;;;2.00;;
81714;SDS011;71125;44.066;2.982;2023-09-12T13:26:44;3.38;;;2.10;;
81714;SDS011;71125;44.066;2.982;2023-09-12T13:29:10;4.07;;;2.17;;
81714;SDS011;71125;44.066;2.982;2023-09-12T13:31:37;4.80;;;2.55;;
81714;SDS011;71125;44.066;2.982;2023-09-12T13:34:03;6.53;;;2.33;;
81714;SDS011;71125;44.066;2.982;2023-09-12T13:36:29;5.10;;;2.35;;
81714;SDS011;71125;44.066;2.982;2023-09-12T13:38:55;7.13;;;2.70;;
81714;SDS011;71125;44.066;2.982;2023-09-12T13:41:21;5.07;;;2.45;;
81714;SDS011;71125;44.066;2.982;2023-09-12T13:43:48;3.85;;;2.50;;
81714;SDS011;71125;44.066;2.982;2023-09-12T13:46:14;6.10;;;2.20;;
81714;SDS011;71125;44.066;2.982;2023-09-12T13:48:41;6.05;;;2.17;;
81714;SDS011;71125;44.066;2.982;2023-09-12T13:51:07;4.88;;;2.10;;
81714;SDS011;71125;44.066;2.982;2023-09-12T13:53:33;6.15;;;2.55;;
81714;SDS011;71125;44.066;2.982;2023-09-12T13:55:59;6.60;;;2.33;;
81714;SDS011;71125;44.066;2.982;2023-09-12T13:58:26;5.28;;;2.22;;
81714;SDS011;71125;44.066;2.982;2023-09-12T14:00:53;2.88;;;2.10;;
81714;SDS011;71125;44.066;2.982;2023-09-12T14:03:19;5.88;;;2.13;;
81714;SDS011;71125;44.066;2.982;2023-09-12T14:05:45;5.90;;;1.83;;
81714;SDS011;71125;44.066;2.982;2023-09-12T14:08:11;5.68;;;2.30;;
81714;SDS011;71125;44.066;2.982;2023-09-12T14:10:37;8.15;;;2.30;;
81714;SDS011;71125;44.066;2.982;2023-09-12T14:13:03;4.60;;;2.13;;
81714;SDS011;71125;44.066;2.982;2023-09-12T14:15:29;3.15;;;2.10;;
81714;SDS011;71125;44.066;2.982;2023-09-12T14:17:55;6.50;;;2.22;;
81714;SDS011;71125;44.066;2.982;2023-09-12T14:20:21;4.53;;;1.92;;
81714;SDS011;71125;44.066;2.982;2023-09-12T14:22:47;6.30;;;1.95;;
81714;SDS011;71125;44.066;2.982;2023-09-12T14:25:13;3.50;;;1.98;;
81714;SDS011;71125;44.066;2.982;2023-09-12T14:27:43;6.43;;;1.85;;
81714;SDS011;71125;44.066;2.982;2023-09-12T14:30:09;3.03;;;1.90;;
81714;SDS011;71125;44.066;2.982;2023-09-12T14:32:38;6.78;;;2.00;;
81714;SDS011;71125;44.066;2.982;2023-09-12T14:35:04;4.70;;;2.33;;
81714;SDS011;71125;44.066;2.982;2023-09-12T14:37:31;6.95;;;2.40;;
81714;SDS011;71125;44.066;2.982;2023-09-12T14:39:57;9.23;;;1.98;;
81714;SDS011;71125;44.066;2.982;2023-09-12T14:42:24;7.05;;;1.98;;
81714;SDS011;71125;44.066;2.982;2023-09-12T14:44:50;5.43;;;2.10;;
81714;SDS011;71125;44.066;2.982;2023-09-12T14:47:16;4.95;;;1.92;;
81714;SDS011;71125;44.066;2.982;2023-09-12T14:49:42;5.15;;;1.70;;
81714;SDS011;71125;44.066;2.982;2023-09-12T14:52:08;5.72;;;1.90;;
81714;SDS011;71125;44.066;2.982;2023-09-12T14:54:34;8.73;;;2.08;;
81714;SDS011;71125;44.066;2.982;2023-09-12T14:57:00;10.45;;;2.40;;
81714;SDS011;71125;44.066;2.982;2023-09-12T14:59:26;10.18;;;2.05;;